Time;durP1;ratioP1;P1;durP2;ratioP2;P2;SDS_P1;SDS_P2;PMS_P1;PMS_P2;Temp;Humidity;BMP_temperature;BMP_pressure;BME280_temperature;BME280_humidity;BME280_pressure;Samples;Min_cycle;Max_cycle;Signal;HPM_P1;HPM_P2
2022/04/09 00:00:09;;;;;;;21.42;4.28;;;;;;;-145.45;100.00;62759.84;5318902;28;20025;-76
2022/04/09 00:02:41;;;;;;;22.10;4.78;;;;;;;-145.45;100.00;62759.84;5305490;28;20651;-75
2022/04/09 00:05:13;;;;;;;23.60;4.68;;;;;;;-145.45;100.00;62759.84;5304940;28;20017;-76
2022/04/09 00:07:44;;;;;;;15.50;4.38;;;;;;;-145.45;100.00;62759.84;5308548;28;20048;-76
2022/04/09 00:10:16;;;;;;;17.63;4.28;;;;;;;-145.45;100.00;62759.84;5302684;28;20043;-76
2022/04/09 00:12:47;;;;;;;18.33;4.65;;;;;;;-145.45;100.00;62759.84;5308412;28;20094;-75
2022/04/09 00:15:18;;;;;;;24.17;4.60;;;;;;;-145.45;100.00;62759.84;5285804;28;20032;-75
2022/04/09 00:17:50;;;;;;;21.77;4.25;;;;;;;-145.45;100.00;62759.84;5299966;28;20115;-75
2022/04/09 00:20:21;;;;;;;22.10;4.38;;;;;;;-145.45;100.00;62759.84;5308460;27;40272;-75
2022/04/09 00:22:52;;;;;;;20.23;4.53;;;;;;;-145.45;100.00;62759.84;5316026;28;20020;-76
2022/04/09 00:25:24;;;;;;;18.13;4.72;;;;;;;-145.45;100.00;62759.84;5311547;28;20054;-76
2022/04/09 00:27:55;;;;;;;19.98;4.88;;;;;;;-145.45;100.00;62759.84;5306818;28;20055;-76
2022/04/09 00:30:26;;;;;;;21.38;4.70;;;;;;;-145.45;100.00;62759.84;5300561;28;20072;-75
2022/04/09 00:32:58;;;;;;;27.15;4.63;;;;;;;-145.45;100.00;62759.84;5310108;28;20020;-76
2022/04/09 00:35:29;;;;;;;23.48;4.68;;;;;;;-145.45;100.00;62759.84;5300891;28;20055;-76
2022/04/09 00:38:00;;;;;;;22.02;4.82;;;;;;;-145.45;100.00;62759.84;5311035;28;20052;-76
2022/04/09 00:40:32;;;;;;;28.67;4.85;;;;;;;-145.45;100.00;62759.84;5307872;28;20028;-76
2022/04/09 00:43:03;;;;;;;23.50;4.53;;;;;;;-145.45;100.00;62759.84;5309966;28;20472;-76
2022/04/09 00:45:34;;;;;;;20.50;4.30;;;;;;;-145.45;100.00;62759.84;5291966;28;20024;-76
2022/04/09 00:48:09;;;;;;;25.27;5.65;;;;;;;-145.45;100.00;62759.84;5305684;28;20370;-76
2022/04/09 00:50:40;;;;;;;29.92;4.28;;;;;;;-145.45;100.00;62759.84;5305740;28;20098;-76
2022/04/09 00:53:18;;;;;;;19.85;4.32;;;;;;;-145.45;100.00;62759.84;5312904;28;20464;-76
2022/04/09 00:59:02;;;;;;;21.73;4.57;;;;;;;-145.45;100.00;62759.84;5306451;28;20123;-75
2022/04/09 01:01:36;;;;;;;28.85;4.10;;;;;;;-145.45;100.00;62759.84;5301062;28;20039;-75
2022/04/09 01:04:10;;;;;;;25.52;4.53;;;;;;;-145.45;100.00;62759.84;5309129;28;20039;-77
2022/04/09 01:06:41;;;;;;;26.60;4.40;;;;;;;-145.45;100.00;62759.84;5301296;28;20025;-77
2022/04/09 01:09:13;;;;;;;21.60;3.83;;;;;;;-145.45;100.00;62759.84;5292040;28;20041;-75
2022/04/09 01:11:44;;;;;;;30.85;4.35;;;;;;;-145.45;100.00;62759.84;5306219;28;20028;-75
2022/04/09 01:14:16;;;;;;;17.52;3.85;;;;;;;-145.45;100.00;62759.84;5307186;28;20120;-75
2022/04/09 01:16:47;;;;;;;18.45;3.67;;;;;;;-145.45;100.00;62759.84;5307088;28;20043;-75
2022/04/09 01:19:19;;;;;;;27.50;6.10;;;;;;;-145.45;100.00;62759.84;5309026;28;20377;-75
2022/04/09 01:21:51;;;;;;;19.15;3.72;;;;;;;-145.45;100.00;62759.84;5305861;28;20040;-75
2022/04/09 01:24:23;;;;;;;20.50;4.80;;;;;;;-145.45;100.00;62759.84;5305189;28;20912;-75
2022/04/09 01:26:54;;;;;;;19.83;4.20;;;;;;;-145.45;100.00;62759.84;5310136;28;20017;-75
2022/04/09 01:29:25;;;;;;;26.92;4.00;;;;;;;-145.45;100.00;62759.84;5304845;28;20473;-75
2022/04/09 01:31:57;;;;;;;20.00;3.97;;;;;;;-145.45;100.00;62759.84;5310197;28;20388;-75
2022/04/09 01:34:29;;;;;;;18.92;4.82;;;;;;;-145.45;100.00;62759.84;5306511;28;20036;-74
2022/04/09 01:37:00;;;;;;;26.58;4.82;;;;;;;-145.45;100.00;62759.84;5310468;28;20044;-75
2022/04/09 01:39:31;;;;;;;20.55;3.58;;;;;;;-145.45;100.00;62759.84;5308666;28;20036;-75
2022/04/09 01:42:03;;;;;;;33.30;6.10;;;;;;;-145.45;100.00;62759.84;5305693;28;20108;-76
2022/04/09 01:44:34;;;;;;;22.85;4.40;;;;;;;-145.45;100.00;62759.84;5308391;28;20151;-75
2022/04/09 01:47:05;;;;;;;27.88;4.78;;;;;;;-145.45;100.00;62759.84;5305454;28;38969;-75
2022/04/09 01:49:36;;;;;;;23.50;4.53;;;;;;;-145.45;100.00;62759.84;5287960;28;20079;-75
2022/04/09 01:52:08;;;;;;;22.00;3.83;;;;;;;-145.45;100.00;62759.84;5286955;28;20060;-75
2022/04/09 01:54:39;;;;;;;21.58;4.07;;;;;;;-145.45;100.00;62759.84;5305258;28;20032;-75
2022/04/09 01:57:11;;;;;;;22.42;5.25;;;;;;;-145.45;100.00;62759.84;5298309;28;20060;-75
2022/04/09 01:59:44;;;;;;;18.17;3.50;;;;;;;-145.45;100.00;62759.84;5305027;28;20032;-75
2022/04/09 02:02:15;;;;;;;19.02;3.63;;;;;;;-145.45;100.00;62759.84;5304185;28;20028;-75
2022/04/09 02:04:46;;;;;;;14.73;3.53;;;;;;;-145.45;100.00;62759.84;5305912;28;20024;-75
2022/04/09 02:07:18;;;;;;;25.13;4.13;;;;;;;-145.45;100.00;62759.84;5306004;28;20055;-75
2022/04/09 02:09:49;;;;;;;15.88;3.65;;;;;;;-145.45;100.00;62759.84;5308729;28;20032;-76
2022/04/09 02:12:20;;;;;;;20.38;4.55;;;;;;;-145.45;100.00;62759.84;5285825;28;20537;-75
2022/04/09 02:14:52;;;;;;;16.55;3.47;;;;;;;-145.45;100.00;62759.84;5305106;28;20036;-76
2022/04/09 02:17:23;;;;;;;26.83;4.65;;;;;;;-145.45;100.00;62759.84;5304755;28;20034;-75
2022/04/09 02:19:54;;;;;;;23.58;4.03;;;;;;;-145.45;100.00;62759.84;5306988;28;20032;-75
2022/04/09 02:22:26;;;;;;;22.05;4.03;;;;;;;-145.45;100.00;62759.84;5306387;28;20032;-75
2022/04/09 02:24:57;;;;;;;25.98;4.30;;;;;;;-145.45;100.00;62759.84;5288322;28;20448;-75
2022/04/09 02:27:29;;;;;;;21.55;4.07;;;;;;;-145.45;100.00;62759.84;5304243;28;20918;-75
2022/04/09 02:30:01;;;;;;;25.98;4.00;;;;;;;-145.45;100.00;62759.84;5305649;28;20385;-75
2022/04/09 02:32:44;;;;;;;23.75;3.72;;;;;;;-145.45;100.00;62759.84;5304492;28;20473;-75
2022/04/09 02:35:19;;;;;;;21.45;3.13;;;;;;;-145.45;100.00;62759.84;5307578;28;20074;-75
2022/04/09 02:37:51;;;;;;;23.70;3.63;;;;;;;-145.45;100.00;62759.84;5303666;28;20110;-75
2022/04/09 02:40:22;;;;;;;24.13;3.83;;;;;;;-145.45;100.00;62759.84;5303212;28;20449;-76
2022/04/09 02:42:54;;;;;;;24.17;3.53;;;;;;;-145.45;100.00;62759.84;5286930;28;20465;-75
2022/04/09 02:45:25;;;;;;;21.05;2.95;;;;;;;-145.45;100.00;62759.84;5285077;28;20033;-75
2022/04/09 02:47:56;;;;;;;19.55;3.03;;;;;;;-145.45;100.00;62759.84;5304972;28;20020;-75
2022/04/09 02:50:28;;;;;;;18.27;3.25;;;;;;;-145.45;100.00;62759.84;5287550;28;20124;-75
2022/04/09 02:52:59;;;;;;;18.77;3.50;;;;;;;-145.45;100.00;62759.84;5303734;28;20027;-75
2022/04/09 02:55:30;;;;;;;20.67;3.65;;;;;;;-145.45;100.00;62759.84;5303145;28;20443;-76
2022/04/09 02:58:02;;;;;;;22.45;3.88;;;;;;;-145.45;100.00;62759.84;5299039;28;20041;-76
2022/04/09 03:00:33;;;;;;;13.20;2.53;;;;;;;-145.45;100.00;62759.84;5303046;28;20024;-75
2022/04/09 03:03:04;;;;;;;26.33;3.40;;;;;;;-145.45;100.00;62759.84;5303511;28;20483;-76
2022/04/09 03:05:36;;;;;;;14.43;3.00;;;;;;;-145.45;100.00;62759.84;5283990;28;20412;-75
2022/04/09 03:08:07;;;;;;;16.63;3.42;;;;;;;-145.45;100.00;62759.84;5303151;28;20469;-76
2022/04/09 03:10:38;;;;;;;16.55;4.28;;;;;;;-145.45;100.00;62759.84;5303332;28;20107;-75
2022/04/09 03:13:10;;;;;;;15.50;3.47;;;;;;;-145.45;100.00;62759.84;5296716;28;20087;-76
2022/04/09 03:15:42;;;;;;;13.02;2.75;;;;;;;-145.45;100.00;62759.84;5303106;28;20442;-75
2022/04/09 03:18:13;;;;;;;19.52;3.67;;;;;;;-145.45;100.00;62759.84;5303967;28;20528;-75
2022/04/09 03:20:44;;;;;;;29.90;5.05;;;;;;;-145.45;100.00;62759.84;5303731;28;20105;-75
2022/04/09 03:23:16;;;;;;;25.63;3.50;;;;;;;-145.45;100.00;62759.84;5284728;28;20048;-75
2022/04/09 03:25:48;;;;;;;16.23;3.25;;;;;;;-145.45;100.00;62759.84;5306098;28;20108;-75
2022/04/09 03:28:19;;;;;;;13.10;3.08;;;;;;;-145.45;100.00;62759.84;5302650;28;20563;-76
2022/04/09 03:30:51;;;;;;;15.35;3.40;;;;;;;-145.45;100.00;62759.84;5302535;28;20038;-77
2022/04/09 03:33:22;;;;;;;22.05;3.33;;;;;;;-145.45;100.00;62759.84;5304880;28;20035;-75
2022/04/09 03:35:54;;;;;;;16.90;3.78;;;;;;;-145.45;100.00;62759.84;5305556;28;20031;-76
2022/04/09 03:38:25;;;;;;;19.38;3.30;;;;;;;-145.45;100.00;62759.84;5298966;28;20029;-75
2022/04/09 03:40:57;;;;;;;18.90;3.67;;;;;;;-145.45;100.00;62759.84;5299328;28;20074;-75
2022/04/09 03:43:29;;;;;;;16.70;3.10;;;;;;;-145.45;100.00;62759.84;5283216;28;20107;-75
2022/04/09 03:46:01;;;;;;;16.67;3.58;;;;;;;-145.45;100.00;62759.84;5303337;28;20442;-75
2022/04/09 03:48:32;;;;;;;14.95;3.30;;;;;;;-145.45;100.00;62759.84;5300895;28;20034;-75
2022/04/09 03:51:03;;;;;;;21.50;4.95;;;;;;;-145.45;100.00;62759.84;5320254;28;20028;-75
2022/04/09 03:53:35;;;;;;;17.20;2.85;;;;;;;-145.45;100.00;62759.84;5309427;28;20020;-75
2022/04/09 03:56:06;;;;;;;18.00;5.38;;;;;;;-145.45;100.00;62759.84;5285082;28;20108;-75
2022/04/09 03:58:37;;;;;;;16.98;3.30;;;;;;;-145.45;100.00;62759.84;5301772;28;20020;-75
2022/04/09 04:01:09;;;;;;;16.67;3.50;;;;;;;-145.45;100.00;62759.84;5302966;28;20079;-74
2022/04/09 04:03:40;;;;;;;21.17;3.13;;;;;;;-145.45;100.00;62759.84;5304518;28;20025;-75
2022/04/09 04:06:12;;;;;;;19.65;3.10;;;;;;;-145.45;100.00;62759.84;5303914;28;20042;-75
2022/04/09 04:08:43;;;;;;;13.18;3.65;;;;;;;-145.45;100.00;62759.84;5309662;28;20090;-75
2022/04/09 04:11:14;;;;;;;16.88;3.40;;;;;;;-145.45;100.00;62759.84;5288543;28;20047;-75
2022/04/09 04:13:46;;;;;;;18.00;3.47;;;;;;;-145.45;100.00;62759.84;5302062;28;20044;-74
2022/04/09 04:16:17;;;;;;;15.63;3.00;;;;;;;-145.45;100.00;62759.84;5301243;28;20024;-75
2022/04/09 04:18:48;;;;;;;13.73;3.60;;;;;;;-145.45;100.00;62759.84;5301930;28;20024;-75
2022/04/09 04:21:20;;;;;;;17.40;3.40;;;;;;;-145.45;100.00;62759.84;5301857;28;20035;-75
2022/04/09 04:23:51;;;;;;;20.67;3.65;;;;;;;-145.45;100.00;62759.84;5302199;28;20275;-75
2022/04/09 04:26:22;;;;;;;19.15;4.18;;;;;;;-145.45;100.00;62759.84;5307176;28;20526;-75
2022/04/09 04:28:53;;;;;;;16.63;3.20;;;;;;;-145.45;100.00;62759.84;5302553;28;20036;-75
2022/04/09 04:31:25;;;;;;;17.83;3.50;;;;;;;-145.45;100.00;62759.84;5304206;28;20051;-76
2022/04/09 04:33:56;;;;;;;12.45;3.00;;;;;;;-145.45;100.00;62759.84;5304933;28;20074;-75
2022/04/09 04:36:27;;;;;;;16.33;3.38;;;;;;;-145.45;100.00;62759.84;5301787;28;20029;-75
2022/04/09 04:38:58;;;;;;;13.75;3.20;;;;;;;-145.45;100.00;62759.84;5267247;28;20412;-75
2022/04/09 04:41:30;;;;;;;16.05;3.58;;;;;;;-145.45;100.00;62759.84;5301471;28;20492;-76
2022/04/09 04:44:01;;;;;;;18.05;3.55;;;;;;;-145.45;100.00;62759.84;5302035;28;20032;-75
2022/04/09 04:46:33;;;;;;;14.43;3.28;;;;;;;-145.45;100.00;62759.84;5297898;28;20077;-76
2022/04/09 04:49:05;;;;;;;13.95;3.38;;;;;;;-145.45;100.00;62759.84;5302514;28;20033;-76
2022/04/09 04:51:36;;;;;;;15.30;3.40;;;;;;;-145.45;100.00;62759.84;5302792;28;20121;-75
2022/04/09 04:54:07;;;;;;;16.13;3.38;;;;;;;-145.45;100.00;62759.84;5302286;28;20020;-75
2022/04/09 04:56:38;;;;;;;15.45;5.13;;;;;;;-145.45;100.00;62759.84;5302634;28;20036;-75
2022/04/09 04:59:10;;;;;;;14.88;2.95;;;;;;;-145.45;100.00;62759.84;5299536;28;20052;-75
2022/04/09 05:01:41;;;;;;;17.30;3.85;;;;;;;-145.45;100.00;62759.84;5301508;28;20055;-75
2022/04/09 05:04:12;;;;;;;15.93;3.55;;;;;;;-145.45;100.00;62759.84;5302493;28;20028;-76
2022/04/09 05:06:45;;;;;;;18.33;4.95;;;;;;;-145.45;100.00;62759.84;5306343;28;20055;-75
2022/04/09 05:09:17;;;;;;;17.92;3.33;;;;;;;-145.45;100.00;62759.84;5308742;28;20036;-75
2022/04/09 05:11:48;;;;;;;17.52;3.40;;;;;;;-145.45;100.00;62759.84;5301276;28;20025;-75
2022/04/09 05:14:19;;;;;;;18.27;3.50;;;;;;;-145.45;100.00;62759.84;5300791;28;20175;-75
2022/04/09 05:16:51;;;;;;;21.10;3.45;;;;;;;-145.45;100.00;62759.84;5310110;28;20028;-75
2022/04/09 05:19:23;;;;;;;18.83;3.65;;;;;;;-145.45;100.00;62759.84;5305234;28;20032;-78
2022/04/09 05:21:54;;;;;;;13.70;2.92;;;;;;;-145.45;100.00;62759.84;5299943;28;20044;-76
2022/04/09 05:24:25;;;;;;;19.33;3.72;;;;;;;-145.45;100.00;62759.84;5303401;28;20116;-76
2022/04/09 05:26:56;;;;;;;16.98;3.28;;;;;;;-145.45;100.00;62759.84;5303234;28;20446;-76
2022/04/09 05:29:28;;;;;;;15.13;4.07;;;;;;;-145.45;100.00;62759.84;5303960;28;20036;-75
2022/04/09 05:32:00;;;;;;;21.08;3.50;;;;;;;-145.45;100.00;62759.84;5304121;28;20044;-75
2022/04/09 05:34:31;;;;;;;14.93;4.00;;;;;;;-145.45;100.00;62759.84;5304110;28;20028;-75
2022/04/09 05:37:03;;;;;;;19.58;5.40;;;;;;;-145.45;100.00;62759.84;5304522;28;20052;-76
2022/04/09 05:39:35;;;;;;;16.00;3.70;;;;;;;-145.45;100.00;62759.84;5304299;28;20028;-76
2022/04/09 05:42:06;;;;;;;20.30;4.22;;;;;;;-145.45;100.00;62759.84;5304083;28;20027;-76
2022/04/09 05:44:37;;;;;;;15.02;2.90;;;;;;;-145.45;100.00;62759.84;5303428;28;20070;-75
2022/04/09 05:47:09;;;;;;;19.08;3.78;;;;;;;-145.45;100.00;62759.84;5303757;28;20121;-76
2022/04/09 05:49:40;;;;;;;17.90;3.78;;;;;;;-145.45;100.00;62759.84;5303676;28;20036;-76
2022/04/09 05:52:11;;;;;;;17.83;4.00;;;;;;;-145.45;100.00;62759.84;5303568;28;20052;-76
2022/04/09 05:54:43;;;;;;;17.95;2.97;;;;;;;-145.45;100.00;62759.84;5305654;28;20035;-76
2022/04/09 05:57:14;;;;;;;17.73;3.55;;;;;;;-145.45;100.00;62759.84;5303285;28;20048;-76
2022/04/09 05:59:45;;;;;;;25.13;3.72;;;;;;;-145.45;100.00;62759.84;5285482;28;20028;-76
2022/04/09 06:02:17;;;;;;;14.88;3.22;;;;;;;-145.45;100.00;62759.84;5300378;28;20180;-76
2022/04/09 06:04:48;;;;;;;22.10;3.83;;;;;;;-145.45;100.00;62759.84;5287933;28;20036;-76
2022/04/09 06:07:19;;;;;;;12.85;2.88;;;;;;;-145.45;100.00;62759.84;5285491;28;20105;-76
2022/04/09 06:09:52;;;;;;;16.50;3.30;;;;;;;-145.45;100.00;62759.84;5307411;28;20039;-75
2022/04/09 06:12:23;;;;;;;15.00;3.17;;;;;;;-145.45;100.00;62759.84;5303387;28;20107;-76
2022/04/09 06:14:54;;;;;;;17.75;3.28;;;;;;;-145.45;100.00;62759.84;5303240;28;20025;-76
2022/04/09 06:17:26;;;;;;;14.40;3.75;;;;;;;-145.45;100.00;62759.84;5301442;28;20346;-75
2022/04/09 06:19:57;;;;;;;16.65;3.45;;;;;;;-145.45;100.00;62759.84;5285862;28;20031;-76
2022/04/09 06:22:29;;;;;;;17.48;3.10;;;;;;;-145.45;100.00;62759.84;5302691;28;20024;-76
2022/04/09 06:25:00;;;;;;;17.98;4.35;;;;;;;-145.45;100.00;62759.84;5306378;28;20028;-76
2022/04/09 06:27:35;;;;;;;15.48;3.25;;;;;;;-145.45;100.00;62759.84;5303911;28;20028;-76
2022/04/09 06:30:08;;;;;;;16.33;3.47;;;;;;;-145.45;100.00;62759.84;5302905;28;20035;-76
2022/04/09 06:32:39;;;;;;;13.40;3.88;;;;;;;-145.45;100.00;62759.84;5306477;28;20319;-76
2022/04/09 06:35:11;;;;;;;15.43;3.50;;;;;;;-145.45;100.00;62759.84;5300639;28;20131;-76
2022/04/09 06:37:43;;;;;;;14.20;3.38;;;;;;;-145.45;100.00;62759.84;5310460;28;20396;-76
2022/04/09 06:40:14;;;;;;;12.73;2.50;;;;;;;-145.45;100.00;62759.84;5312576;28;20492;-76
2022/04/09 06:42:46;;;;;;;13.93;3.30;;;;;;;-145.45;100.00;62759.84;5307888;28;20043;-76
2022/04/09 06:45:17;;;;;;;14.95;3.25;;;;;;;-145.45;100.00;62759.84;5289843;28;20017;-77
2022/04/09 06:47:48;;;;;;;11.05;3.15;;;;;;;-145.45;100.00;62759.84;5304476;28;20623;-76
2022/04/09 06:50:20;;;;;;;17.05;3.55;;;;;;;-145.45;100.00;62759.84;5301326;28;20335;-76
2022/04/09 06:52:51;;;;;;;17.38;3.28;;;;;;;-145.45;100.00;62759.84;5310251;28;20490;-76
2022/04/09 06:55:22;;;;;;;16.08;2.97;;;;;;;-145.45;100.00;62759.84;5307483;28;20032;-76
2022/04/09 06:58:03;;;;;;;11.57;2.90;;;;;;;-145.45;100.00;62759.84;5310417;28;20035;-77
2022/04/09 07:00:34;;;;;;;11.32;2.65;;;;;;;-145.45;100.00;62759.84;5311269;28;20031;-76
2022/04/09 07:03:06;;;;;;;11.43;2.47;;;;;;;-145.45;100.00;62759.84;5309191;28;20472;-76
2022/04/09 07:05:37;;;;;;;11.75;2.47;;;;;;;-145.45;100.00;62759.84;5311846;28;20112;-76
2022/04/09 07:08:09;;;;;;;14.43;3.45;;;;;;;-145.45;100.00;62759.84;5309226;28;20028;-76
2022/04/09 07:10:40;;;;;;;11.85;2.70;;;;;;;-145.45;100.00;62759.84;5311483;28;20043;-76
2022/04/09 07:13:12;;;;;;;11.50;2.28;;;;;;;-145.45;100.00;62759.84;5304973;28;20052;-76
2022/04/09 07:15:43;;;;;;;12.05;2.63;;;;;;;-145.45;100.00;62759.84;5290966;28;20116;-75
2022/04/09 07:18:14;;;;;;;10.15;2.30;;;;;;;-145.45;100.00;62759.84;5309841;28;35885;-76
2022/04/09 07:20:46;;;;;;;12.48;3.05;;;;;;;-145.45;100.00;62759.84;5313059;28;20027;-76
2022/04/09 07:23:17;;;;;;;8.13;2.90;;;;;;;-145.45;100.00;62759.84;5308680;28;20036;-76
2022/04/09 07:25:49;;;;;;;10.05;2.22;;;;;;;-145.45;100.00;62759.84;5290712;28;20063;-76
2022/04/09 07:28:20;;;;;;;13.05;2.85;;;;;;;-145.45;100.00;62759.84;5306189;27;20366;-76
2022/04/09 07:30:51;;;;;;;15.68;2.70;;;;;;;-145.45;100.00;62759.84;5308391;28;20036;-76
2022/04/09 07:33:22;;;;;;;11.50;2.47;;;;;;;-145.45;100.00;62759.84;5310958;28;20051;-76
2022/04/09 07:35:54;;;;;;;12.68;2.70;;;;;;;-145.45;100.00;62759.84;5294314;28;20063;-76
2022/04/09 07:38:25;;;;;;;12.93;2.63;;;;;;;-145.45;100.00;62759.84;5293905;28;20193;-77
2022/04/09 07:40:56;;;;;;;16.42;2.75;;;;;;;-145.45;100.00;62759.84;5308915;28;20469;-76
2022/04/09 07:43:29;;;;;;;17.13;3.60;;;;;;;-145.45;100.00;62759.84;5311376;28;20016;-77
2022/04/09 07:46:01;;;;;;;9.93;2.20;;;;;;;-145.45;100.00;62759.84;5289956;28;20036;-77
2022/04/09 07:48:33;;;;;;;15.77;3.20;;;;;;;-145.45;100.00;62759.84;5310532;28;20377;-77
2022/04/09 07:51:04;;;;;;;8.02;2.53;;;;;;;-145.45;100.00;62759.84;5311244;28;20056;-77
2022/04/09 07:53:35;;;;;;;15.85;3.28;;;;;;;-145.45;100.00;62759.84;5290224;28;20417;-77
2022/04/09 07:56:08;;;;;;;10.43;2.50;;;;;;;-145.45;100.00;62759.84;5309842;28;20044;-77
2022/04/09 07:58:39;;;;;;;11.40;2.58;;;;;;;-145.45;100.00;62759.84;5303689;28;20024;-77
2022/04/09 08:01:10;;;;;;;9.75;2.60;;;;;;;-145.45;100.00;62759.84;5300620;28;20029;-77
2022/04/09 08:03:42;;;;;;;9.20;2.63;;;;;;;-145.45;100.00;62759.84;5301415;28;20036;-77
2022/04/09 08:06:13;;;;;;;11.38;3.25;;;;;;;-145.45;100.00;62759.84;5301289;28;20418;-77
2022/04/09 08:08:44;;;;;;;10.55;2.72;;;;;;;-145.45;100.00;62759.84;5302893;28;20035;-77
2022/04/09 08:11:15;;;;;;;9.75;2.45;;;;;;;-145.45;100.00;62759.84;5310915;28;20044;-77
2022/04/09 08:13:48;;;;;;;11.77;2.90;;;;;;;-145.45;100.00;62759.84;5306555;28;20039;-77
2022/04/09 08:16:19;;;;;;;13.73;3.13;;;;;;;-145.45;100.00;62759.84;5310987;28;20024;-77
2022/04/09 08:18:51;;;;;;;9.93;3.13;;;;;;;-145.45;100.00;62759.84;5307670;28;20483;-77
2022/04/09 08:21:22;;;;;;;13.43;3.10;;;;;;;-145.45;100.00;62759.84;5306579;28;20028;-77
2022/04/09 08:23:53;;;;;;;9.32;2.53;;;;;;;-145.45;100.00;62759.84;5311407;28;20388;-77
2022/04/09 08:26:25;;;;;;;8.77;2.35;;;;;;;-145.45;100.00;62759.84;5310873;28;20064;-77
2022/04/09 08:28:56;;;;;;;8.15;2.50;;;;;;;-145.45;100.00;62759.84;5290289;28;20036;-77
2022/04/09 08:31:28;;;;;;;10.07;2.60;;;;;;;-145.45;100.00;62759.84;5309982;28;20449;-77
2022/04/09 08:33:59;;;;;;;9.10;2.15;;;;;;;-145.45;100.00;62759.84;5302191;28;20100;-76
2022/04/09 08:36:30;;;;;;;7.55;2.40;;;;;;;-145.45;100.00;62759.84;5299547;28;20037;-76
2022/04/09 08:39:02;;;;;;;9.98;2.55;;;;;;;-145.45;100.00;62759.84;5296343;28;29632;-76
2022/04/09 08:41:36;;;;;;;8.13;1.92;;;;;;;-145.45;100.00;62759.84;5305230;28;20028;-76
2022/04/09 08:44:08;;;;;;;5.50;1.98;;;;;;;-145.45;100.00;62759.84;5311860;28;20024;-76
2022/04/09 08:46:40;;;;;;;6.03;1.90;;;;;;;-145.45;100.00;62759.84;5305497;28;20150;-76
2022/04/09 08:49:12;;;;;;;10.10;1.90;;;;;;;-145.45;100.00;62759.84;5312237;28;20068;-76
2022/04/09 08:51:43;;;;;;;10.38;2.40;;;;;;;-145.45;100.00;62759.84;5311707;28;20442;-75
2022/04/09 08:54:16;;;;;;;7.07;2.10;;;;;;;-145.45;100.00;62759.84;5314814;28;20388;-75
2022/04/09 08:56:49;;;;;;;6.35;1.90;;;;;;;-145.45;100.00;62759.84;5309783;28;20101;-75
2022/04/09 08:59:21;;;;;;;7.45;1.88;;;;;;;-145.45;100.00;62759.84;5293587;28;20040;-76
2022/04/09 09:01:52;;;;;;;7.70;2.28;;;;;;;-145.45;100.00;62759.84;5309467;28;20027;-76
2022/04/09 09:04:23;;;;;;;5.47;1.60;;;;;;;-145.45;100.00;62759.84;5289644;28;20039;-75
2022/04/09 09:06:55;;;;;;;3.72;1.25;;;;;;;-145.45;100.00;62759.84;5307458;28;20499;-75
2022/04/09 09:09:29;;;;;;;5.55;1.60;;;;;;;-145.45;100.00;62759.84;5310572;28;20028;-75
2022/04/09 09:12:02;;;;;;;6.07;1.40;;;;;;;-145.45;100.00;62759.84;5304706;28;20092;-75
2022/04/09 09:14:34;;;;;;;4.65;1.25;;;;;;;-145.45;100.00;62759.84;5305056;28;20497;-76
2022/04/09 09:17:06;;;;;;;5.13;1.55;;;;;;;-145.45;100.00;62759.84;5303989;28;20103;-76
2022/04/09 09:19:47;;;;;;;9.23;1.60;;;;;;;-145.45;100.00;62759.84;5283679;28;20044;-76
2022/04/09 09:22:19;;;;;;;3.03;1.00;;;;;;;-145.45;100.00;62759.84;5302258;28;20121;-76
2022/04/09 09:25:04;;;;;;;4.57;1.55;;;;;;;-145.45;100.00;62759.84;5301972;28;20060;-76
2022/04/09 09:27:40;;;;;;;5.15;1.77;;;;;;;-145.45;100.00;62759.84;5288059;28;20460;-75
2022/04/09 09:30:13;;;;;;;3.35;0.93;;;;;;;-145.45;100.00;62759.84;5301015;28;20474;-75
2022/04/09 09:32:45;;;;;;;4.15;1.23;;;;;;;-145.45;100.00;62759.84;5305121;28;20101;-76
2022/04/09 09:35:17;;;;;;;4.90;0.90;;;;;;;-145.45;100.00;62759.84;5304543;28;20052;-76
2022/04/09 09:37:48;;;;;;;3.85;1.25;;;;;;;-145.45;100.00;62759.84;5305222;28;20477;-76
2022/04/09 09:40:32;;;;;;;3.40;1.10;;;;;;;-145.45;100.00;62759.84;5294668;28;20032;-76
2022/04/09 09:43:14;;;;;;;4.68;1.50;;;;;;;-145.45;100.00;62759.84;5286608;28;20442;-76
2022/04/09 09:45:47;;;;;;;4.45;1.50;;;;;;;-145.45;100.00;62759.84;5304746;28;20024;-76
2022/04/09 09:48:22;;;;;;;3.20;1.25;;;;;;;-145.45;100.00;62759.84;5287732;28;20029;-75
2022/04/09 09:50:58;;;;;;;7.57;1.45;;;;;;;-145.45;100.00;62759.84;5303600;28;20431;-75
2022/04/09 09:53:32;;;;;;;3.88;1.13;;;;;;;-145.45;100.00;62759.84;5304526;28;20021;-76
2022/04/09 09:56:04;;;;;;;3.13;1.05;;;;;;;-145.45;100.00;62759.84;5285673;28;20029;-75
2022/04/09 09:58:37;;;;;;;3.80;1.10;;;;;;;-145.45;100.00;62759.84;5302519;28;20027;-76
2022/04/09 10:01:09;;;;;;;5.53;1.63;;;;;;;-145.45;100.00;62759.84;5302185;28;20024;-76
2022/04/09 10:03:40;;;;;;;3.85;1.52;;;;;;;-145.45;100.00;62759.84;5302831;28;20027;-76
2022/04/09 10:06:12;;;;;;;4.85;1.20;;;;;;;-145.45;100.00;62759.84;5284584;28;20508;-76
2022/04/09 10:08:43;;;;;;;5.93;1.38;;;;;;;-145.45;100.00;62759.84;5303992;28;20507;-76
2022/04/09 10:11:17;;;;;;;3.72;0.90;;;;;;;-145.45;100.00;62759.84;5307343;28;20036;-76
2022/04/09 10:13:51;;;;;;;3.72;1.25;;;;;;;-145.45;100.00;62759.84;5283620;28;20041;-76
2022/04/09 10:16:23;;;;;;;4.47;1.20;;;;;;;-145.45;100.00;62759.84;5319268;28;20029;-75
2022/04/09 10:19:00;;;;;;;4.25;1.20;;;;;;;-145.45;100.00;62759.84;5283863;28;20033;-75
2022/04/09 10:21:33;;;;;;;4.88;1.17;;;;;;;-145.45;100.00;62759.84;5303670;28;20035;-75
2022/04/09 10:24:13;;;;;;;4.07;1.50;;;;;;;-145.45;100.00;62759.84;5311569;28;20012;-76
2022/04/09 10:26:45;;;;;;;4.95;1.48;;;;;;;-145.45;100.00;62759.84;5308824;28;20059;-76
2022/04/09 10:29:16;;;;;;;4.88;1.08;;;;;;;-145.45;100.00;62759.84;5302902;28;20083;-76
2022/04/09 10:31:51;;;;;;;5.90;1.27;;;;;;;-145.45;100.00;62759.84;5307856;28;20021;-76
2022/04/09 10:34:22;;;;;;;5.47;0.90;;;;;;;-145.45;100.00;62759.84;5303182;28;20028;-76
2022/04/09 10:36:54;;;;;;;3.97;1.30;;;;;;;-145.45;100.00;62759.84;5303545;28;20028;-77
2022/04/09 10:39:39;;;;;;;3.28;1.25;;;;;;;-145.45;100.00;62759.84;5285544;28;20814;-77
2022/04/09 10:42:30;;;;;;;5.40;1.23;;;;;;;-145.45;100.00;62759.84;5301872;28;20108;-77
2022/04/09 10:45:04;;;;;;;4.07;1.00;;;;;;;-145.45;100.00;62759.84;5299516;28;20039;-77
2022/04/09 10:48:05;;;;;;;2.95;0.93;;;;;;;-145.45;100.00;62759.84;5285011;28;20468;-76
2022/04/09 10:51:04;;;;;;;3.25;0.93;;;;;;;-145.45;100.00;62759.84;5302276;28;20039;-77
2022/04/09 10:53:38;;;;;;;3.55;0.90;;;;;;;-145.45;100.00;62759.84;5284355;28;20351;-77
2022/04/09 10:56:30;;;;;;;3.33;1.20;;;;;;;-145.45;100.00;62759.84;5284845;28;20094;-77
2022/04/09 10:59:12;;;;;;;2.97;1.17;;;;;;;-145.45;100.00;62759.84;5301857;28;20154;-77
2022/04/09 11:01:47;;;;;;;4.82;0.88;;;;;;;-145.45;100.00;62759.84;5302889;28;20082;-77
2022/04/09 11:04:31;;;;;;;4.30;0.90;;;;;;;-145.45;100.00;62759.84;5302584;28;20454;-77
2022/04/09 11:07:24;;;;;;;1.30;0.82;;;;;;;-145.45;100.00;62759.84;5302482;28;20458;-77
2022/04/09 11:09:58;;;;;;;5.30;0.90;;;;;;;-145.45;100.00;62759.84;5302481;28;20035;-77
2022/04/09 11:12:38;;;;;;;10.25;1.00;;;;;;;-145.45;100.00;62759.84;5301887;28;20035;-77
2022/04/09 11:15:12;;;;;;;2.78;0.60;;;;;;;-145.45;100.00;62759.84;5300362;28;20028;-77
2022/04/09 11:17:48;;;;;;;2.10;0.75;;;;;;;-145.45;100.00;62759.84;5285122;28;20078;-77
2022/04/09 11:20:23;;;;;;;3.83;1.00;;;;;;;-145.45;100.00;62759.84;5302091;28;20024;-76
2022/04/09 11:22:56;;;;;;;3.03;0.95;;;;;;;-145.45;100.00;62759.84;5283464;28;20025;-77
2022/04/09 11:25:29;;;;;;;4.07;0.60;;;;;;;-145.45;100.00;62759.84;5302919;28;20021;-76
2022/04/09 11:28:05;;;;;;;3.80;0.75;;;;;;;-145.45;100.00;62759.84;5291201;28;20036;-75
2022/04/09 11:30:36;;;;;;;1.38;0.65;;;;;;;-145.45;100.00;62759.84;5282996;28;20032;-75